Archival Weather

Salzburg

Salzburg, Austria (LOWS)

Report from: Thursday, September 21, 2023 2:20 AM CEST
Current time: Saturday, February 24, 2024 5:47 PM CET

Current weather – Weather history – Daily summaries
Weather forecast

Temperature15.0°C (59.0°F)
Dew point12.0°C (53.6°F)
Winds 5 kts (2.6 m/s, 5.8 mph) South (180°)
Visibility6.2 mi. (10 km)
Altimeter29.80 in.Hg (1009 mB)
Relative humidity82 %
Density altitude340 ft. (104 m)
Remarks Fully automated report
Flight conditions Visual Meteorological Conditions
Raw dataLOWS 210020Z AUTO 18005KT 9999 NSC 15/12 Q1009
An error has occurred. This application may no longer respond until reloaded. Reload 🗙